Dunmore, Canada
Current Conditions -  °F | °C
As of 6:00 AM on Friday 19 Dec 2014 (Local Time) from CYXH Reporting Station
Few Clouds Few Clouds  
Wind Chill: 15°   Ceiling: Unl
Heat Index: 23°   Visibility: 15mi
Dew Point: 21°   Wind: 7mph
Humidity: 93%   Direction: 210°SSW
Pressure: 29.82"   Gusts: NA
Location:  49.97°N, 110.58°W
Report Text: CYXH 191300Z 21006KT 15SM FEW280 M05/M06 A2982 RMK CI2 SOG 7 CM FROIN SLP135
Loading
Personal Weather Stations






























Interactive Weather Map New forecast layout! Learn more

10-Day Weather Forecast

Advertisements
Track Severe Weather on mobile